createdAt,value
2022-08-05T00:02:15.108Z,96539.48
2022-08-05T00:18:07.610Z,96533.65
2022-08-05T00:21:59.823Z,96539.08
2022-08-05T00:25:52.777Z,96533.98
2022-08-05T00:29:46.842Z,96538.56
2022-08-05T00:49:22.651Z,96522.66
2022-08-05T00:54:01.004Z,96529.42
2022-08-05T00:57:38.184Z,96525.98
2022-08-05T01:17:30.924Z,96522.98
2022-08-05T01:21:40.719Z,96521.73
2022-08-05T01:25:52.363Z,96519.82
2022-08-05T01:29:25.009Z,96520.66
2022-08-05T01:33:19.635Z,96524.23
2022-08-05T01:41:08.975Z,96527.27
2022-08-05T01:45:03.251Z,96524.98
2022-08-05T01:48:54.959Z,96528.54
2022-08-05T02:00:54.020Z,96524.15
2022-08-05T02:04:49.501Z,96524.31
2022-08-05T02:08:44.826Z,96521.47
2022-08-05T02:13:02.618Z,96521.94
2022-08-05T02:16:37.978Z,96528.30
2022-08-05T02:20:38.965Z,96523.34
2022-08-05T02:40:16.833Z,96512.37
2022-08-05T02:44:12.266Z,96508.73
2022-08-05T02:48:06.860Z,96498.06
2022-08-05T02:52:07.600Z,96508.45
2022-08-05T03:11:55.509Z,96508.46
2022-08-05T03:15:52.407Z,96509.77
2022-08-05T03:31:57.151Z,96506.99
2022-08-05T03:35:44.384Z,96501.63
2022-08-05T03:39:57.794Z,96501.33
2022-08-05T03:52:37.444Z,96507.59
2022-08-05T03:56:18.089Z,96509.75
2022-08-05T04:00:22.931Z,96512.77
2022-08-05T04:24:04.716Z,96503.71
2022-08-05T04:27:57.363Z,96498.40
2022-08-05T04:31:53.920Z,96503.15
2022-08-05T04:47:22.207Z,96497.53
2022-08-05T04:51:15.124Z,96493.62
2022-08-05T04:55:14.423Z,96494.16
2022-08-05T04:59:23.877Z,96493.02
2022-08-05T05:19:19.042Z,96484.77
2022-08-05T05:23:19.841Z,96484.51
2022-08-05T05:27:14.445Z,96482.59
2022-08-05T05:46:40.420Z,96474.33
2022-08-05T05:50:41.292Z,96478.19
2022-08-05T05:54:50.363Z,96476.34
2022-08-05T06:21:24.151Z,96466.48
2022-08-05T06:25:25.339Z,96471.25
2022-08-05T06:28:54.637Z,96465.25
2022-08-05T06:32:24.903Z,96465.70
2022-08-05T06:36:04.022Z,96461.13
2022-08-05T06:59:30.563Z,96466.24
2022-08-05T07:02:32.341Z,96463.77
2022-08-05T07:05:41.154Z,96465.23
2022-08-05T07:08:21.136Z,96462.98
2022-08-05T07:11:17.376Z,96457.59
2022-08-05T07:14:20.598Z,96461.52
2022-08-05T07:17:58.332Z,96456.89
2022-08-05T07:20:32.822Z,96452.43
2022-08-05T07:23:29.707Z,96446.81
2022-08-05T07:26:35.226Z,96446.31
2022-08-05T07:30:24.160Z,96447.12
2022-08-05T07:32:40.519Z,96449.23
2022-08-05T07:36:04.000Z,96449.45
2022-08-05T07:38:33.471Z,96445.50
2022-08-05T07:42:07.277Z,96447.38
2022-08-05T07:44:19.210Z,96449.77
2022-08-05T07:46:52.474Z,96448.37
2022-08-05T07:49:24.133Z,96446.47
2022-08-05T07:51:56.162Z,96448.47
2022-08-05T07:54:31.227Z,96449.11
2022-08-05T07:57:41.834Z,96450.44
2022-08-05T08:00:28.271Z,96451.92
2022-08-05T08:03:15.109Z,96452.86
2022-08-05T08:05:49.570Z,96453.89
2022-08-05T08:08:20.565Z,96453.19
2022-08-05T08:10:51.071Z,96452.10
2022-08-05T08:13:29.434Z,96445.81
2022-08-05T08:16:49.818Z,96440.75
2022-08-05T08:18:56.852Z,96442.35
2022-08-05T08:21:27.946Z,96441.56
2022-08-05T08:24:02.891Z,96438.62
2022-08-05T08:26:37.268Z,96434.99
2022-08-05T08:29:45.373Z,96431.27
2022-08-05T08:32:07.895Z,96434.89
2022-08-05T08:34:45.821Z,96431.73
2022-08-05T08:37:18.835Z,96427.86
2022-08-05T08:39:52.723Z,96427.27
2022-08-05T08:42:34.298Z,96424.57
2022-08-05T08:45:26.247Z,96424.08
2022-08-05T08:48:12.485Z,96422.39
2022-08-05T08:51:22.447Z,96418.94
2022-08-05T08:53:45.070Z,96418.56
2022-08-05T08:56:18.116Z,96415.92
2022-08-05T08:58:48.806Z,96418.34
2022-08-05T09:01:20.670Z,96418.80
2022-08-05T09:03:55.712Z,96422.64
2022-08-05T09:06:36.233Z,96419.27
2022-08-05T09:09:06.789Z,96417.78
2022-08-05T09:11:51.911Z,96414.31
2022-08-05T09:14:56.817Z,96407.16
2022-08-05T09:17:40.698Z,96404.42
2022-08-05T09:20:08.623Z,96398.83
2022-08-05T09:23:19.093Z,96395.00
2022-08-05T09:26:01.420Z,96393.27
2022-08-05T09:28:36.687Z,96388.38
2022-08-05T09:31:43.666Z,96385.39
2022-08-05T09:34:11.801Z,96386.22
2022-08-05T09:36:55.715Z,96386.56
2022-08-05T09:39:45.225Z,96384.13
2022-08-05T09:42:28.450Z,96378.73
2022-08-05T09:46:04.981Z,96373.52
2022-08-05T09:48:00.137Z,96377.64
2022-08-05T09:50:44.704Z,96375.74
2022-08-05T09:53:26.069Z,96374.59
2022-08-05T09:56:13.261Z,96370.88
2022-08-05T09:59:05.194Z,96368.33
2022-08-05T10:01:39.675Z,96369.49
2022-08-05T10:04:16.087Z,96365.07
2022-08-05T10:06:59.448Z,96362.39
2022-08-05T10:09:30.274Z,96358.16
2022-08-05T10:12:30.785Z,96358.81
2022-08-05T10:15:26.179Z,96360.20
2022-08-05T10:18:09.354Z,96352.64
2022-08-05T10:20:50.838Z,96352.45
2022-08-05T10:23:55.609Z,96345.75
2022-08-05T10:26:18.965Z,96348.73
2022-08-05T10:28:56.396Z,96344.71
2022-08-05T10:33:00.860Z,96346.24
2022-08-05T10:34:20.003Z,96341.14
2022-08-05T10:36:57.434Z,96338.33
2022-08-05T10:39:59.289Z,96332.44
2022-08-05T10:42:33.892Z,96338.54
2022-08-05T10:45:21.589Z,96334.18
2022-08-05T10:48:29.147Z,96328.98
2022-08-05T10:51:21.836Z,96327.67
2022-08-05T10:53:52.176Z,96320.98
2022-08-05T10:56:31.659Z,96318.98
2022-08-05T10:59:12.727Z,96321.55
2022-08-05T11:02:14.554Z,96324.20
2022-08-05T11:05:10.468Z,96318.98
2022-08-05T11:08:36.707Z,96319.72
2022-08-05T11:11:44.629Z,96318.03
2022-08-05T11:15:00.945Z,96318.35
2022-08-05T11:17:59.689Z,96315.98
2022-08-05T11:20:46.474Z,96314.51
2022-08-05T11:24:05.751Z,96309.48
2022-08-05T11:26:32.977Z,96310.65
2022-08-05T11:29:12.880Z,96307.34
2022-08-05T11:31:54.469Z,96304.06
2022-08-05T11:34:51.102Z,96296.16
2022-08-05T11:38:37.005Z,96294.02
2022-08-05T11:41:35.510Z,96292.75
2022-08-05T11:44:08.114Z,96287.98
2022-08-05T11:46:58.647Z,96287.45
2022-08-05T11:49:42.908Z,96284.80
2022-08-05T11:52:13.621Z,96282.10
2022-08-05T11:54:48.514Z,96283.80
2022-08-05T11:57:30.608Z,96286.11
2022-08-05T12:00:30.411Z,96284.88
2022-08-05T12:03:31.687Z,96284.45
2022-08-05T12:06:06.447Z,96278.33
2022-08-05T12:08:51.284Z,96278.34
2022-08-05T12:11:24.422Z,96273.08
2022-08-05T12:14:04.050Z,96270.69
2022-08-05T12:16:46.363Z,96266.95
2022-08-05T12:20:25.724Z,96265.70
2022-08-05T12:22:09.715Z,96273.98
2022-08-05T12:24:49.565Z,96268.46
2022-08-05T12:27:25.232Z,96261.66
2022-08-05T12:30:08.900Z,96263.32
2022-08-05T12:32:53.705Z,96259.98
2022-08-05T12:35:37.136Z,96254.75
2022-08-05T12:38:10.950Z,96250.27
2022-08-05T12:40:44.213Z,96246.03
2022-08-05T12:43:21.081Z,96246.40
2022-08-05T12:45:57.196Z,96241.49
2022-08-05T12:48:32.541Z,96243.95
2022-08-05T12:52:11.158Z,96242.11
2022-08-05T12:54:05.000Z,96237.19
2022-08-05T12:56:53.061Z,96231.23
2022-08-05T12:59:46.714Z,96237.11
2022-08-05T13:02:30.676Z,96228.09
2022-08-05T13:05:01.178Z,96225.98
2022-08-05T13:07:57.410Z,96225.73
2022-08-05T13:10:24.699Z,96222.94
2022-08-05T13:12:58.456Z,96226.71
2022-08-05T13:15:35.932Z,96223.34
2022-08-05T13:18:20.347Z,96220.30
2022-08-05T13:20:50.980Z,96218.05
2022-08-05T13:23:22.577Z,96220.98
2022-08-05T13:25:59.394Z,96219.00
2022-08-05T13:28:32.297Z,96216.56
2022-08-05T13:31:11.094Z,96216.55
2022-08-05T13:34:25.027Z,96213.19
2022-08-05T13:36:36.423Z,96213.91
2022-08-05T13:39:08.343Z,96209.23
2022-08-05T13:41:39.108Z,96209.76
2022-08-05T13:44:10.129Z,96209.27
2022-08-05T13:49:31.613Z,96203.95
2022-08-05T13:52:29.173Z,96207.55
2022-08-05T13:54:59.662Z,96206.90
2022-08-05T13:57:51.011Z,96204.48
2022-08-05T14:00:27.358Z,96195.13
2022-08-05T14:03:01.149Z,96193.13
2022-08-05T14:06:04.876Z,96192.48
2022-08-05T14:08:27.650Z,96188.11
2022-08-05T14:11:19.822Z,96188.77
2022-08-05T14:13:55.014Z,96186.31
2022-08-05T14:16:32.329Z,96184.19
2022-08-05T14:19:04.623Z,96183.23
2022-08-05T14:22:10.107Z,96187.63
2022-08-05T14:24:26.245Z,96186.23
2022-08-05T14:27:17.542Z,96183.13
2022-08-05T14:29:51.343Z,96186.48
2022-08-05T14:32:27.704Z,96180.41
2022-08-05T14:34:59.193Z,96179.11
2022-08-05T14:37:45.288Z,96175.55
2022-08-05T14:40:18.148Z,96178.22
2022-08-05T14:42:48.842Z,96176.85
2022-08-05T14:45:19.087Z,96169.59
2022-08-05T14:48:03.916Z,96165.59
2022-08-05T14:50:40.810Z,96161.27
2022-08-05T14:53:12.750Z,96164.08
2022-08-05T14:55:43.596Z,96163.34
2022-08-05T14:58:22.327Z,96162.67
2022-08-05T15:00:58.932Z,96160.02
2022-08-05T15:03:33.979Z,96158.09
2022-08-05T15:06:15.403Z,96152.91
2022-08-05T15:08:59.170Z,96155.20
2022-08-05T15:11:51.732Z,96149.70
2022-08-05T15:14:34.887Z,96141.14
2022-08-05T15:17:45.030Z,96138.70
2022-08-05T15:20:18.282Z,96139.63
2022-08-05T15:22:52.172Z,96142.83
2022-08-05T15:25:51.169Z,96142.95
2022-08-05T15:28:16.230Z,96135.61
2022-08-05T15:30:53.102Z,96141.21
2022-08-05T15:34:04.614Z,96138.03
2022-08-05T15:36:17.185Z,96137.70
2022-08-05T15:41:00.213Z,96135.45
2022-08-05T15:41:56.034Z,96135.69
2022-08-05T15:44:30.159Z,96135.58
2022-08-05T15:47:02.059Z,96135.73
2022-08-05T15:49:55.124Z,96133.52
2022-08-05T15:52:29.383Z,96133.59
2022-08-05T15:55:17.970Z,96137.24
2022-08-05T15:57:48.989Z,96139.92
2022-08-05T16:00:26.064Z,96146.33
2022-08-05T16:03:03.685Z,96142.38
2022-08-05T16:05:33.602Z,96141.98
2022-08-05T16:08:04.984Z,96141.88
2022-08-05T16:10:33.832Z,96140.43
2022-08-05T16:13:05.986Z,96138.23
2022-08-05T16:15:34.644Z,96138.11
2022-08-05T16:18:09.158Z,96135.42
2022-08-05T16:20:38.610Z,96137.09
2022-08-05T16:23:09.400Z,96137.27
2022-08-05T16:25:39.659Z,96136.23
2022-08-05T16:28:11.249Z,96138.39
2022-08-05T16:30:41.674Z,96142.67
2022-08-05T16:33:11.973Z,96141.08
2022-08-05T16:35:47.764Z,96146.44
2022-08-05T16:38:25.084Z,96144.00
2022-08-05T16:41:00.460Z,96138.71
2022-08-05T16:43:36.035Z,96139.36
2022-08-05T16:46:23.584Z,96138.05
2022-08-05T16:48:53.661Z,96137.40
2022-08-05T16:51:30.677Z,96133.90
2022-08-05T16:54:16.005Z,96136.06
2022-08-05T16:56:48.127Z,96139.36
2022-08-05T16:59:25.024Z,96142.23
2022-08-05T17:01:58.376Z,96142.46
2022-08-05T17:04:31.777Z,96141.00
2022-08-05T17:07:11.361Z,96141.86
2022-08-05T17:09:58.460Z,96144.95
2022-08-05T17:12:50.338Z,96143.58
2022-08-05T17:15:20.939Z,96147.52
2022-08-05T17:17:55.174Z,96151.83
2022-08-05T17:20:26.595Z,96154.39
2022-08-05T17:22:58.711Z,96159.14
2022-08-05T17:25:39.588Z,96165.01
2022-08-05T17:28:11.459Z,96164.86
2022-08-05T17:30:52.206Z,96168.48
2022-08-05T17:33:23.280Z,96171.92
2022-08-05T17:36:08.754Z,96173.75
2022-08-05T17:38:41.595Z,96174.95
2022-08-05T17:42:18.235Z,96178.63
2022-08-05T17:44:02.931Z,96179.83
2022-08-05T17:46:36.686Z,96179.61
2022-08-05T17:49:10.205Z,96182.14
2022-08-05T17:51:40.815Z,96180.45
2022-08-05T17:54:10.937Z,96180.39
2022-08-05T17:56:41.298Z,96181.05
2022-08-05T17:59:24.574Z,96180.20
2022-08-05T18:01:56.149Z,96184.17
2022-08-05T18:04:31.010Z,96186.45
2022-08-05T18:07:03.706Z,96187.02
2022-08-05T18:09:59.817Z,96189.45
2022-08-05T18:12:33.638Z,96193.66
2022-08-05T18:15:06.999Z,96195.90
2022-08-05T18:17:59.269Z,96197.88
2022-08-05T18:20:33.671Z,96210.12
2022-08-05T18:23:15.105Z,96209.97
2022-08-05T18:25:57.550Z,96213.48
2022-08-05T18:28:40.318Z,96216.91
2022-08-05T18:31:43.703Z,96218.64
2022-08-05T18:34:23.769Z,96221.68
2022-08-05T18:37:34.696Z,96228.85
2022-08-05T18:41:54.319Z,96228.95
2022-08-05T18:43:58.759Z,96225.18
2022-08-05T18:46:59.935Z,96228.23
2022-08-05T18:50:03.463Z,96234.20
2022-08-05T18:53:22.200Z,96239.58
2022-08-05T18:56:37.984Z,96247.79
2022-08-05T18:59:42.967Z,96248.32
2022-08-05T19:03:04.968Z,96249.34
2022-08-05T19:06:21.542Z,96253.33
2022-08-05T19:09:30.088Z,96257.52
2022-08-05T19:13:17.356Z,96258.23
2022-08-05T19:16:46.801Z,96262.14
2022-08-05T19:20:06.198Z,96262.29
2022-08-05T19:24:05.273Z,96265.15
2022-08-05T19:26:55.982Z,96264.63
2022-08-05T19:30:30.029Z,96265.74
2022-08-05T19:58:53.808Z,96269.92
2022-08-05T20:02:37.290Z,96271.77
2022-08-05T20:06:01.664Z,96273.09
2022-08-05T20:09:55.050Z,96276.08
2022-08-05T20:13:30.032Z,96273.91
2022-08-05T20:44:17.781Z,96266.81
2022-08-05T20:47:34.572Z,96272.49
2022-08-05T20:51:08.293Z,96278.48
2022-08-05T20:54:59.866Z,96279.36
2022-08-05T20:58:01.544Z,96277.54
2022-08-05T21:01:16.686Z,96278.52
2022-08-05T21:04:39.926Z,96276.98
2022-08-05T21:08:11.056Z,96281.17
2022-08-05T21:12:07.186Z,96280.29
2022-08-05T21:15:13.469Z,96282.92
2022-08-05T21:18:37.111Z,96284.27
2022-08-05T21:22:23.514Z,96283.85
2022-08-05T21:44:37.227Z,96290.98
2022-08-05T21:48:29.226Z,96291.88
2022-08-05T21:52:21.759Z,96289.19
2022-08-05T22:16:00.852Z,96295.06
2022-08-05T22:20:03.575Z,96290.40
2022-08-05T22:24:12.939Z,96284.91
2022-08-05T22:47:29.185Z,96277.98
2022-08-05T22:51:23.073Z,96274.74
2022-08-05T22:55:56.407Z,96273.81
2022-08-05T23:11:36.195Z,96278.09
2022-08-05T23:15:35.282Z,96273.59
2022-08-05T23:19:23.979Z,96266.73
2022-08-05T23:23:19.056Z,96262.69
2022-08-05T23:35:36.858Z,96269.13
2022-08-05T23:39:44.394Z,96265.61
2022-08-05T23:42:39.308Z,96268.56
2022-08-05T23:45:14.396Z,96269.58
2022-08-05T23:47:48.048Z,96267.98
2022-08-05T23:50:20.197Z,96268.77
2022-08-05T23:52:51.227Z,96268.55
2022-08-05T23:55:24.717Z,96269.16
2022-08-05T23:58:03.743Z,96265.48
